M I D A S
Marine Information and Data Acquisition System
Tripno 900 of the Zeeleeuw from 2005-05-13 11:42:02 to 2005-05-13 13:38:10
Back to CruiseResearch ActivitiesStationsMapUnderway DataData graphs

EquipmentUnitsComment
TimeDGPSUTC
LatitudeDGPSDM.mWGS84
LongitudeDGPSDM.mWGS84
TemperatureSBE03/SBE38deg celciusITS90
ConductivitySBE21S/mITS90
SalinitySBE21 Practical Salinity Units
ChlorophylAChelsea fluorimeterg/lCalibrated in Aceton
Missing or incorrect values are displayed as -999
Sea surface data collected by the RV Zeeleeuw from 2005-05-13 07:17:48 to 2005-05-13 13:50:20
Time Latitude Longitude Temperature Conductivity Salinity ChlorophylA
2005-05-13 07:18:55 51°13.611 2°56.047 18.7439 0.071788 0.411277 2.387435
2005-05-13 07:19:55 51°13.649 2°55.932 18.8037 0.071788 0.411433 2.387435
2005-05-13 07:20:54 51°13.701 2°55.815 18.8308 0.071788 0.411419 2.387435
2005-05-13 07:21:54 51°13.733 2°55.731 18.8923 0.071788 0.411489 2.421144
2005-05-13 07:22:54 51°13.737 2°55.738 18.7588 0.071788 0.411454 2.421144
2005-05-13 07:23:54 51°13.725 2°55.706 18.8835 0.071788 0.411524 2.387435
2005-05-13 07:24:54 51°13.766 2°55.677 18.6531 0.071788 0.411482 2.387435
2005-05-13 07:25:52 51°13.848 2°55.625 18.7334 0.071788 0.411602 2.387435
2005-05-13 07:26:53 51°13.957 2°55.554 18.6754 0.071788 0.411623 2.387435
2005-05-13 07:27:54 51°14.088 2°55.465 18.703 0.071684 0.411035 2.387435
2005-05-13 07:28:54 51°14.208 2°55.357 18.7491 0.071788 0.411694 2.353725
2005-05-13 07:29:54 51°14.316 2°55.161 18.6431 0.071684 0.411077 2.387435
2005-05-13 07:30:54 51°14.403 2°54.872 18.3355 0.071684 0.411147 2.387435
2005-05-13 07:31:54 51°14.48 2°54.528 18.3395 0.071684 0.411218 2.353725
2005-05-13 07:32:54 51°14.567 2°54.183 18.3233 0.071684 0.411232 2.353725
2005-05-13 07:33:54 51°14.654 2°53.84 18.2148 0.071684 0.41114 2.353725
2005-05-13 07:34:54 51°14.736 2°53.492 18.2566 0.071684 0.411275 2.353725
2005-05-13 07:35:54 51°14.787 2°53.124 18.2541 0.071684 0.411296 2.353725
2005-05-13 07:36:54 51°14.804 2°52.745 18.3258 0.071684 0.411331 2.320016
2005-05-13 07:37:54 51°14.813 2°52.366 18.2808 0.071684 0.411451 2.320016
2005-05-13 07:38:54 51°14.824 2°51.982 18.3307 0.071684 0.411423 2.353725
2005-05-13 07:39:54 51°14.833 2°51.592 18.3505 0.071684 0.411494 2.286306
2005-05-13 07:40:53 51°14.842 2°51.209 18.3504 0.071684 0.411423 2.353725
2005-05-13 07:41:53 51°14.785 2°50.878 18.3016 0.071684 0.411564 2.286306
2005-05-13 07:42:55 51°14.776 2°50.713 18.3282 0.071684 0.411607 2.320016
2005-05-13 07:43:54 51°14.75 2°50.611 18.3497 0.071684 0.411642 2.286306
2005-05-13 07:44:54 51°14.731 2°50.516 18.3759 0.071684 0.411685 2.286306
2005-05-13 07:45:54 51°14.703 2°50.415 18.3831 0.071684 0.411699 2.286306
2005-05-13 07:46:54 51°14.672 2°50.309 18.3929 0.071684 0.411741 2.286306
2005-05-13 07:47:54 51°14.643 2°50.195 18.4066 0.071684 0.41177 2.286306
2005-05-13 07:48:54 51°14.619 2°50.088 13.2113 0.071788 0.416116 4.645965
2005-05-13 07:49:54 51°14.591 2°49.998 11.9626 3.491442 29.383392 18.197144
2005-05-13 07:50:54 51°14.554 2°49.927 11.8669 3.446783 29.465654 17.3207
2005-05-13 07:51:54 51°14.513 2°49.872 11.822 3.442255 29.517081 17.489247
2005-05-13 07:52:54 51°14.474 2°49.826 11.7873 3.442677 29.576022 17.152153
2005-05-13 07:53:54 51°14.439 2°49.781 11.7486 3.455424 29.727029 17.185862
2005-05-13 07:54:54 51°14.406 2°49.737 11.7275 3.435936 29.566217 16.309418
2005-05-13 07:55:54 51°14.368 2°49.692 11.7226 3.445417 29.67367 15.972324
2005-05-13 07:56:54 51°14.322 2°49.64 11.7091 3.442784 29.661102 16.275708
2005-05-13 07:57:54 51°14.269 2°49.584 11.7167 3.438992 29.637454 15.938614
2005-05-13 07:58:54 51°14.215 2°49.524 11.7022 3.441204 29.666781 16.983606
2005-05-13 07:59:54 51°14.163 2°49.461 11.7024 3.442784 29.68693 16.71393
2005-05-13 08:00:54 51°14.115 2°49.395 11.7041 3.43541 29.620209 16.74764
2005-05-13 08:01:54 51°14.069 2°49.325 11.7059 3.434883 29.609513 17.017315
2005-05-13 08:02:54 51°14.028 2°49.253 11.7089 3.435094 29.612156 17.994888
2005-05-13 08:03:54 51°13.99 2°49.177 11.7145 3.324076 28.558456 18.062306
2005-05-13 08:04:54 51°13.955 2°49.1 11.7114 3.400544 29.282789 18.635366
2005-05-13 08:05:54 51°13.92 2°49.023 11.7082 3.378845 29.07827 19.444392
2005-05-13 08:06:55 51°13.88 2°48.95 11.7121 3.381268 29.101372 19.815195
2005-05-13 08:07:54 51°13.844 2°48.88 11.7134 3.377581 29.068069 19.54552
2005-05-13 08:08:54 51°13.814 2°48.803 11.7102 3.387061 29.155389 20.11858
2005-05-13 08:09:54 51°13.795 2°48.726 11.7191 3.35483 28.843882 20.388255
2005-05-13 08:10:55 51°13.785 2°48.651 11.7143 3.386324 29.146499 20.725349
2005-05-13 08:11:54 51°13.779 2°48.582 11.7166 3.358306 28.883118 21.466956
2005-05-13 08:12:54 51°13.781 2°48.513 11.7079 3.390221 29.184913 20.354546
2005-05-13 08:13:54 51°13.804 2°48.426 11.7079 3.260675 27.956159 20.051161
2005-05-13 08:14:54 51°13.847 2°48.32 11.7133 3.394224 29.225583 19.714067
2005-05-13 08:15:54 51°13.895 2°48.222 11.7049 3.371788 29.015299 19.646648
2005-05-13 08:16:54 51°13.936 2°48.141 11.6965 3.333028 28.65094 19.376973
2005-05-13 08:17:54 51°13.95 2°48.075 11.6903 3.382743 29.129045 19.275845
2005-05-13 08:18:54 51°13.951 2°48.017 11.6894 3.378635 29.097271 19.781486
2005-05-13 08:19:54 51°13.943 2°47.961 11.68 3.360413 28.924072 19.848905
2005-05-13 08:20:54 51°13.929 2°47.906 11.6794 3.375791 29.075696 20.253418
2005-05-13 08:21:54 51°13.921 2°47.847 11.6819 3.395804 29.265523 20.287127
2005-05-13 08:22:54 51°13.933 2°47.795 11.6801 3.343455 28.765498 20.354546
2005-05-13 08:23:54 51°13.951 2°47.777 11.683 3.381374 29.130216 19.107298
2005-05-13 08:24:54 51°13.951 2°47.757 11.6866 3.332818 28.665983 19.848905
2005-05-13 08:25:54 51°13.943 2°47.73 11.69 3.367786 28.995002 20.084871
2005-05-13 08:26:54 51°13.926 2°47.692 11.6911 3.363467 28.951968 19.208426
2005-05-13 08:27:54 51°13.905 2°47.65 11.6922 3.319336 28.530942 19.848905
2005-05-13 08:28:54 51°13.881 2°47.615 11.6917 3.357148 28.891099 20.017452
2005-05-13 08:29:54 51°13.86 2°47.629 11.6928 3.376423 29.076782 20.388255
2005-05-13 08:30:54 51°13.873 2°47.635 11.6845 3.358622 28.908228 19.983742
2005-05-13 08:31:54 51°13.885 2°47.595 11.6862 3.396225 29.269547 20.152289
2005-05-13 08:32:54 51°13.912 2°47.579 11.6876 3.388431 29.192629 20.624221
2005-05-13 08:33:54 51°13.965 2°47.63 11.6929 3.381795 29.127426 20.995024
2005-05-13 08:34:54 51°14.009 2°47.702 11.6847 3.384323 29.150315 21.129862
2005-05-13 08:35:54 51°14.041 2°47.762 11.6897 3.348932 28.818306 20.624221
2005-05-13 08:36:53 51°14.062 2°47.822 11.6917 3.344087 28.770297 20.421965
2005-05-13 08:37:54 51°14.058 2°47.91 11.6973 3.349143 28.817864 20.253418
2005-05-13 08:38:54 51°14.054 2°47.992 11.6904 3.367891 28.993541 19.174717
2005-05-13 08:39:54 51°14.052 2°48.069 11.6864 3.222028 27.610352 19.612939
2005-05-13 08:40:54 51°14.051 2°48.143 11.6881 3.390643 29.218716 19.039879
2005-05-13 08:41:54 51°14.049 2°48.217 11.7 3.340822 28.735523 19.983742
2005-05-13 08:42:54 51°14.048 2°48.293 11.7098 3.370735 29.013885 19.747777
2005-05-13 08:43:54 51°14.045 2°48.369 11.7113 3.340295 28.718912 20.826477
2005-05-13 08:44:54 51°14.041 2°48.446 11.7186 3.371788 29.017148 21.601794
2005-05-13 08:45:55 51°14.037 2°48.517 11.7322 3.319968 28.517568 21.332118
2005-05-13 08:46:54 51°14.031 2°48.584 11.7303 3.352513 28.821203 21.365828
2005-05-13 08:47:54 51°14.039 2°48.665 11.7441 3.392222 29.197806 20.69164
2005-05-13 08:48:54 51°14.057 2°48.753 11.7379 3.339769 28.693788 20.69164
2005-05-13 08:49:54 51°14.069 2°48.828 11.7235 3.349459 28.791507 19.848905
2005-05-13 08:50:54 51°14.077 2°48.895 11.709 3.393486 29.218547 18.770204
2005-05-13 08:51:54 51°14.086 2°48.96 11.7161 3.348932 28.800555 18.601657
2005-05-13 08:52:54 51°14.095 2°49.021 11.7093 3.362203 28.927007 18.803913
2005-05-13 08:53:54 51°14.106 2°49.079 11.7128 3.344824 28.762042 19.646648
2005-05-13 08:54:54 51°14.124 2°49.145 11.7175 3.343139 28.741719 19.680358
2005-05-13 08:55:54 51°14.142 2°49.214 11.7229 3.267099 28.014731 20.69164
2005-05-13 08:56:54 51°14.161 2°49.285 11.7207 3.252461 27.875882 19.478101
2005-05-13 08:57:54 51°14.18 2°49.359 11.7268 3.350196 28.804642 19.714067
2005-05-13 08:58:54 51°14.196 2°49.433 11.7268 3.386324 29.147118 20.152289
2005-05-13 08:59:54 51°14.194 2°49.513 11.7293 3.357147 28.869015 20.65793
2005-05-13 09:00:54 51°14.154 2°49.595 11.7372 3.354093 28.839921 21.2647
2005-05-13 09:01:55 51°14.072 2°49.595 11.7277 3.341348 28.712477 21.568084
2005-05-13 09:02:54 51°14.016 2°49.482 11.7309 3.298799 28.308512 22.91646
2005-05-13 09:03:54 51°13.988 2°49.38 11.7397 3.335556 28.657354 23.759195
2005-05-13 09:04:54 51°13.972 2°49.291 11.7403 3.342086 28.718884 23.995161
2005-05-13 09:05:54 51°13.989 2°49.202 11.7404 3.338189 28.676321 23.624358
2005-05-13 09:06:54 51°14.047 2°49.222 11.7216 3.347773 28.760811 23.759195
2005-05-13 09:07:54 51°14.107 2°49.433 11.731 3.337978 28.687101 24.568221
2005-05-13 09:08:54 51°14.182 2°49.706 11.7362 3.335556 28.655529 23.894033
2005-05-13 09:09:54 51°14.259 2°49.98 11.7318 3.305644 28.366327 23.287264
2005-05-13 09:10:54 51°14.335 2°50.259 11.7271 3.349353 28.785616 24.433383
2005-05-13 09:11:54 51°14.411 2°50.54 11.7257 3.323654 28.542934 24.905315
2005-05-13 09:12:54 51°14.488 2°50.819 11.7228 3.347141 28.77189 26.152563
2005-05-13 09:13:54 51°14.564 2°51.104 11.7322 3.351776 28.816017 25.512084
2005-05-13 09:14:55 51°14.627 2°51.393 11.7375 3.310384 28.417987 24.298546
2005-05-13 09:15:54 51°14.66 2°51.69 11.7415 3.354619 28.833918 23.287264
2005-05-13 09:16:54 51°14.692 2°51.989 11.7502 3.363046 28.90925 20.893896
2005-05-13 09:17:55 51°14.72 2°52.293 11.7571 3.303538 28.339103 22.242272
2005-05-13 09:18:53 51°14.712 2°52.592 11.7582 2.808016 23.680077 21.669212
2005-05-13 09:19:54 51°14.694 2°52.914 11.7619 3.29427 28.24392 21.702922
2005-05-13 09:20:54 51°14.66 2°53.229 11.7586 3.232557 27.66141 21.23099
2005-05-13 09:21:54 51°14.618 2°53.544 11.7573 3.304486 28.335484 21.500665
2005-05-13 09:22:54 51°14.571 2°53.871 11.7692 3.342507 28.699747 20.893896
2005-05-13 09:23:54 51°14.523 2°54.127 11.7901 3.3028 28.314687 19.343264
2005-05-13 09:24:54 51°14.472 2°54.249 11.8027 3.262465 27.920402 19.57923
2005-05-13 09:25:54 51°14.449 2°54.288 11.8076 3.337135 28.617727 19.680358
2005-05-13 09:26:54 51°14.426 2°54.283 11.8098 3.32418 28.493526 21.837759
2005-05-13 09:27:54 51°14.401 2°54.264 11.8027 3.266993 27.950854 23.624358
2005-05-13 09:28:54 51°14.386 2°54.295 11.8135 3.297324 28.237585 23.894033
2005-05-13 09:29:54 51°14.375 2°54.324 11.8345 3.369259 28.913841 23.354683
2005-05-13 09:30:54 51°14.376 2°54.363 11.8479 2.957246 25.020311 22.714204
2005-05-13 09:31:52 51°14.378 2°54.409 11.8699 3.278366 28.023552 23.085007
2005-05-13 09:32:54 51°14.376 2°54.441 11.9047 3.283421 28.059513 23.658067
2005-05-13 09:33:54 51°14.379 2°54.495 11.9999 3.250563 27.689898 22.107435
2005-05-13 09:34:54 51°14.381 2°54.649 12.0557 3.178535 26.953165 22.040016
2005-05-13 09:35:54 51°14.383 2°54.924 12.0328 3.077774 25.98797 22.37711
2005-05-13 09:36:54 51°14.297 2°55.189 11.8877 3.189803 27.108375 26.691913
2005-05-13 09:37:54 51°14.185 2°55.365 12.1637 3.015033 25.469679 26.152563
2005-05-13 09:38:54 51°14.078 2°55.454 12.3662 2.866204 23.932378 22.983879
2005-05-13 09:39:54 51°13.962 2°55.531 12.4272 2.613066 21.516498 20.995024
2005-05-13 09:40:54 51°13.857 2°55.602 12.5084 1.995148 15.99291 20.624221
2005-05-13 09:41:54 51°13.779 2°55.683 12.8196 2.41999 19.640732 20.388255
2005-05-13 09:42:55 51°13.717 2°55.779 13.015 2.082114 16.565403 19.950033
2005-05-13 09:43:54 51°13.668 2°55.877 12.9861 1.96805 15.545937 21.770341
2005-05-13 09:44:54 51°13.637 2°55.961 13.0775 1.813296 14.190793 28.781896
2005-05-13 09:45:54 51°13.614 2°56.04 13.1156 1.709293 13.283225 31.815742
2005-05-13 09:46:54 51°13.599 2°56.086 12.8886 1.936547 15.238802 28.00658
2005-05-13 09:47:54 51°13.594 2°56.094 12.7275 2.181922 17.446188 23.658067
2005-05-13 09:48:54 51°13.59 2°56.101 12.6531 2.398121 19.413186 23.118717
2005-05-13 09:49:55 51°13.594 2°56.097 12.5736 2.57804 21.065877 24.06258
2005-05-13 09:50:54 51°13.593 2°56.103 12.5919 2.576147 21.077562 24.837896
2005-05-13 09:51:54 51°13.595 2°56.101 12.5656 2.559425 20.927863 24.332255
2005-05-13 09:52:54 51°13.594 2°56.102 12.4908 2.639046 21.67198 24.804187
2005-05-13 09:53:54 51°13.594 2°56.103 12.4778 2.710685 22.344756 25.444665
2005-05-13 09:54:55 51°13.595 2°56.103 12.4308 2.754873 22.761648 25.512084
2005-05-13 09:55:54 51°13.595 2°56.103 12.4423 2.802012 23.204937 25.849178
2005-05-13 09:56:52 51°13.595 2°56.103 12.4134 2.792752 23.119606 25.984016
2005-05-13 09:57:54 51°13.596 2°56.103 12.3981 2.837789 23.547884 26.118853
2005-05-13 09:58:55 51°13.596 2°56.103 12.3487 2.878831 23.936601 26.523366
2005-05-13 09:59:55 51°13.596 2°56.102 12.3777 2.978819 24.888041 25.781759
2005-05-13 10:00:54 51°13.596 2°56.102 12.3438 2.892618 24.076407 24.028871
2005-05-13 10:01:54 51°13.596 2°56.102 12.3443 2.924087 24.377829 23.927742
2005-05-13 10:02:54 51°13.596 2°56.103 12.3833 2.943453 24.560943 23.995161
2005-05-13 10:03:54 51°13.595 2°56.103 12.3823 2.836211 23.553511 23.590648
2005-05-13 10:04:54 51°13.595 2°56.103 12.3613 2.84242 23.607831 23.658067
2005-05-13 10:05:54 51°13.595 2°56.103 12.3471 2.882936 23.989643 23.556939
2005-05-13 10:06:55 51°13.596 2°56.103 12.338 2.910931 24.256492 23.287264
2005-05-13 10:07:55 51°13.596 2°56.103 12.3905 2.820006 23.40638 22.579366
2005-05-13 10:08:54 51°13.596 2°56.103 12.3908 2.798224 23.197841 22.882751
2005-05-13 10:09:54 51°13.596 2°56.103 12.3913 2.80117 23.224722 22.983879
2005-05-13 10:10:54 51°13.595 2°56.103 12.3869 2.803275 23.244407 22.815332
2005-05-13 10:11:55 51°13.595 2°56.103 12.3658 2.828003 23.476044 23.354683
2005-05-13 10:12:54 51°13.594 2°56.103 12.3427 2.880094 23.965094 23.759195
2005-05-13 10:13:54 51°13.594 2°56.103 12.3131 2.939138 24.522276 23.860324
2005-05-13 10:14:54 51°13.594 2°56.103 12.3143 2.969556 24.806851 23.556939
2005-05-13 10:15:54 51°13.594 2°56.104 12.303 3.00524 25.144688 23.556939
2005-05-13 10:16:55 51°13.594 2°56.104 12.3072 3.021241 25.298734 23.927742
2005-05-13 10:17:54 51°13.594 2°56.103 12.3077 3.027767 25.358508 24.332255
2005-05-13 10:18:54 51°13.594 2°56.103 12.313 3.028293 25.362315 24.669349
2005-05-13 10:19:54 51°13.594 2°56.103 12.313 3.02303 25.311048 24.264836
2005-05-13 10:20:54 51°13.595 2°56.103 12.3092 3.029241 25.367899 24.669349
2005-05-13 10:21:54 51°13.595 2°56.103 12.3142 3.029346 25.371514 24.028871
2005-05-13 10:22:54 51°13.594 2°56.103 12.3215 3.013345 25.218457 23.725486
2005-05-13 10:23:54 51°13.594 2°56.102 12.3206 3.003661 25.125407 23.894033
2005-05-13 10:24:54 51°13.594 2°56.102 12.3225 3.00724 25.157908 24.06258
2005-05-13 10:25:54 51°13.594 2°56.103 12.3185 3.010082 25.183613 24.433383
2005-05-13 10:26:54 51°13.594 2°56.103 12.3202 3.016398 25.243488 24.129999
2005-05-13 10:27:55 51°13.594 2°56.103 12.3185 3.025346 25.328221 24.298546
2005-05-13 10:28:54 51°13.594 2°56.103 12.3095 3.031662 25.387627 24.500802
2005-05-13 10:29:55 51°13.594 2°56.103 12.2998 3.045137 25.516951 24.500802
2005-05-13 10:30:54 51°13.594 2°56.103 12.2861 3.072508 25.778273 24.905315
2005-05-13 10:31:54 51°13.595 2°56.103 12.2773 3.09188 25.964254 25.410956
2005-05-13 10:32:54 51°13.595 2°56.103 12.2724 3.107672 26.115089 25.17499
2005-05-13 10:33:54 51°13.595 2°56.103 12.2693 3.121043 26.244686 25.444665
2005-05-13 10:34:55 51°13.595 2°56.104 12.2668 3.129256 26.321524 26.051435
2005-05-13 10:35:54 51°13.594 2°56.104 12.258 3.138732 26.410689 25.950306
2005-05-13 10:36:55 51°13.594 2°56.105 12.2506 3.147892 26.503045 25.579503
2005-05-13 10:37:54 51°13.595 2°56.105 12.2872 3.118095 26.207468 25.410956
2005-05-13 10:38:55 51°13.595 2°56.104 12.2754 3.117464 26.202697 25.17499
2005-05-13 10:39:55 51°13.594 2°56.103 12.2585 3.129361 26.31811 25.815469
2005-05-13 10:40:55 51°13.594 2°56.103 12.2613 3.149471 26.512205 26.186272
2005-05-13 10:41:54 51°13.594 2°56.103 12.2503 3.16516 26.664292 25.646922
2005-05-13 10:42:54 51°13.594 2°56.103 12.2501 3.172952 26.742424 25.714341
2005-05-13 10:43:55 51°13.594 2°56.103 12.2902 3.08251 25.876855 24.939024
2005-05-13 10:44:54 51°13.594 2°56.103 12.2847 3.098512 26.024134 25.073862
2005-05-13 10:45:55 51°13.594 2°56.103 12.2782 3.10325 26.068621 25.073862
2005-05-13 10:46:55 51°13.595 2°56.102 12.2771 3.10704 26.108138 24.905315
2005-05-13 10:47:54 51°13.594 2°56.103 12.2797 3.109988 26.133315 24.804187
2005-05-13 10:48:54 51°13.595 2°56.103 12.2847 3.109041 26.122344 24.736768
2005-05-13 10:49:54 51°13.595 2°56.103 12.2832 3.104935 26.087511 24.163708
2005-05-13 10:50:55 51°13.595 2°56.103 12.2817 3.111357 26.148198 24.298546
2005-05-13 10:51:54 51°13.595 2°56.103 12.2782 3.121675 26.243437 24.669349
2005-05-13 10:52:54 51°13.595 2°56.103 12.2801 3.129256 26.314388 24.770477
2005-05-13 10:53:54 51°13.596 2°56.103 12.2873 3.125044 26.271985 24.60193
2005-05-13 10:54:54 51°13.596 2°56.103 12.2859 3.093985 25.979445 23.927742
2005-05-13 10:55:55 51°13.594 2°56.102 12.2944 3.102092 26.054076 24.500802
2005-05-13 10:56:54 51°13.594 2°56.102 12.2888 3.106935 26.097366 24.467093
2005-05-13 10:57:54 51°13.594 2°56.103 12.2948 3.098407 26.018818 24.500802
2005-05-13 10:58:54 51°13.595 2°56.103 12.2958 3.083878 25.880907 23.860324
2005-05-13 10:59:54 51°13.593 2°56.102 12.298 3.083668 25.878417 24.231127
2005-05-13 11:00:54 51°13.593 2°56.102 12.3019 3.085563 25.89058 24.399674
2005-05-13 11:01:54 51°13.593 2°56.102 12.3033 3.089774 25.930136 24.500802
2005-05-13 11:02:55 51°13.594 2°56.102 12.3047 3.084826 25.884832 23.590648
2005-05-13 11:03:54 51°13.596 2°56.102 12.3091 3.066297 25.711645 23.725486
2005-05-13 11:04:54 51°13.596 2°56.102 12.3111 3.075456 25.793749 24.028871
2005-05-13 11:05:54 51°13.598 2°56.103 12.3107 3.078404 25.818354 24.06258
2005-05-13 11:06:54 51°13.597 2°56.103 12.3132 3.081878 25.852677 24.129999
2005-05-13 11:07:55 51°13.595 2°56.103 12.3069 3.072613 25.766897 24.06258
2005-05-13 11:08:55 51°13.597 2°56.104 12.3138 3.054611 25.597651 23.860324
2005-05-13 11:09:55 51°13.598 2°56.105 12.321 3.059033 25.635345 24.939024
2005-05-13 11:10:54 51°13.594 2°56.103 12.3199 3.047558 25.527112 23.995161
2005-05-13 11:11:54 51°13.598 2°56.104 12.3213 3.047768 25.529058 24.231127
2005-05-13 11:12:54 51°13.594 2°56.103 12.327 3.040505 25.460864 24.163708
2005-05-13 11:13:54 51°13.593 2°56.102 12.3255 3.049979 25.546835 24.264836
2005-05-13 11:14:55 51°13.593 2°56.102 12.3209 3.051979 25.565858 24.231127
2005-05-13 11:15:54 51°13.594 2°56.102 12.3144 3.053664 25.583028 24.264836
2005-05-13 11:16:54 51°13.593 2°56.102 12.3009 3.060401 25.649606 24.399674
2005-05-13 11:17:55 51°13.593 2°56.102 12.3099 3.07514 25.795661 23.961452
2005-05-13 11:18:54 51°13.593 2°56.103 12.3054 3.071876 25.761685 23.691777
2005-05-13 11:19:55 51°13.593 2°56.103 12.3047 3.073771 25.779765 24.197418
2005-05-13 11:20:54 51°13.593 2°56.103 12.3075 3.075456 25.794824 24.129999
2005-05-13 11:21:55 51°13.594 2°56.104 12.3044 3.07693 25.808471 24.231127
2005-05-13 11:22:54 51°13.595 2°56.104 12.3054 3.077561 25.814858 24.096289
2005-05-13 11:23:54 51°13.594 2°56.104 12.3083 3.078298 25.821144 24.028871
2005-05-13 11:24:55 51°13.597 2°56.105 12.3089 3.079983 25.835128 24.096289
2005-05-13 11:25:54 51°13.595 2°56.103 12.3036 3.087668 25.907928 23.961452
2005-05-13 11:26:54 51°13.594 2°56.103 12.3057 3.088721 25.920381 23.590648
2005-05-13 11:27:54 51°13.595 2°56.103 12.3109 3.084299 25.873486 23.051298
2005-05-13 11:28:54 51°13.595 2°56.103 12.315 3.082088 25.851935 23.388392
2005-05-13 11:29:54 51°13.594 2°56.103 12.3194 3.081667 25.845344 23.826614
2005-05-13 11:30:54 51°13.594 2°56.103 12.3215 3.083036 25.855862 23.860324
2005-05-13 11:31:54 51°13.595 2°56.104 12.3177 3.085878 25.884878 23.556939
2005-05-13 11:32:54 51°13.595 2°56.103 12.319 3.0883 25.903527 23.624358
2005-05-13 11:33:54 51°13.595 2°56.103 12.3029 3.090405 25.929507 23.455811
2005-05-13 11:34:55 51°13.596 2°56.103 12.3098 3.094301 25.9683 24.129999
2005-05-13 11:35:55 51°13.595 2°56.103 12.3124 3.078719 25.82074 23.927742
2005-05-13 11:36:55 51°13.595 2°56.103 12.3182 3.06935 25.731864 24.298546
2005-05-13 11:37:54 51°13.596 2°56.103 12.3197 3.071455 25.748132 24.096289
2005-05-13 11:38:55 51°13.596 2°56.103 12.3241 3.072192 25.755488 24.399674
2005-05-13 11:39:54 51°13.596 2°56.103 12.3208 3.053769 25.582936 24.332255
2005-05-13 11:40:54 51°13.596 2°56.103 12.3219 3.061033 25.648505 24.63564
2005-05-13 11:41:55 51°13.595 2°56.103 12.3223 3.063349 25.67046 24.736768
2005-05-13 11:42:54 51°13.595 2°56.103 12.3324 3.077245 25.800646 24.669349
2005-05-13 11:43:55 51°13.595 2°56.103 12.3087 3.068086 25.71696 24.264836
2005-05-13 11:44:54 51°13.595 2°56.103 12.3144 3.059349 25.639334 24.467093
2005-05-13 11:45:54 51°13.594 2°56.103 12.3148 3.064507 25.686519 24.804187
2005-05-13 11:46:54 51°13.594 2°56.103 12.3129 3.081983 25.848806 24.298546
2005-05-13 11:47:55 51°13.608 2°56.059 12.325 3.012187 25.194126 23.860324
2005-05-13 11:48:55 51°13.637 2°55.954 12.3989 3.017345 25.240672 25.377247
2005-05-13 11:49:55 51°13.684 2°55.841 12.4079 2.883041 23.961718 23.691777
2005-05-13 11:50:55 51°13.712 2°55.793 12.4357 2.906931 24.184566 23.354683
2005-05-13 11:51:55 51°13.708 2°55.792 12.5058 2.795172 23.121038 23.725486
2005-05-13 11:52:55 51°13.698 2°55.746 12.4497 2.81306 23.279589 23.894033
2005-05-13 11:53:54 51°13.718 2°55.756 12.6336 2.643148 21.686579 26.017725
2005-05-13 11:54:54 51°13.757 2°55.714 12.5993 2.589399 21.169977 25.646922
2005-05-13 11:55:54 51°13.85 2°55.624 12.6016 2.649144 21.73031 26.118853
2005-05-13 11:56:55 51°13.977 2°55.518 12.4422 2.699428 22.194994 25.579503
2005-05-13 11:57:55 51°14.084 2°55.434 12.3882 2.898511 24.095896 24.399674
2005-05-13 11:58:54 51°14.211 2°55.33 12.31 2.930086 24.403006 24.129999
2005-05-13 11:59:55 51°14.337 2°55.141 12.3128 2.978504 24.905866 26.186272
2005-05-13 12:00:54 51°14.48 2°54.942 12.1102 2.97082 24.837098 25.781759
2005-05-13 12:01:54 51°14.679 2°54.829 11.9857 3.276574 27.841289 26.927879
2005-05-13 12:02:54 51°14.88 2°54.715 11.9172 3.415288 29.208456 26.152563
2005-05-13 12:03:55 51°15.051 2°54.516 11.8595 3.439727 29.50363 23.759195
2005-05-13 12:04:55 51°15.091 2°54.164 11.8363 3.454054 29.679402 24.264836
2005-05-13 12:05:54 51°15.062 2°53.783 11.8374 3.460164 29.746438 21.365828
2005-05-13 12:06:54 51°15.036 2°53.404 11.8045 3.4589 29.741935 20.792768
2005-05-13 12:07:54 51°15.009 2°53.022 11.8256 3.452369 29.699771 23.017589
2005-05-13 12:08:54 51°14.981 2°52.639 11.8234 3.45279 29.68619 21.702922
2005-05-13 12:09:54 51°14.945 2°52.258 11.8195 3.454054 29.7039 22.444529
2005-05-13 12:10:55 51°14.9 2°51.921 11.8304 3.456688 29.721469 21.298409
2005-05-13 12:11:54 51°14.897 2°51.746 11.8116 3.4589 29.753268 21.433247
2005-05-13 12:12:55 51°14.853 2°51.62 11.8146 3.458795 29.761083 20.961315
2005-05-13 12:13:55 51°14.794 2°51.544 11.811 3.458479 29.755547 20.388255
2005-05-13 12:14:54 51°14.718 2°51.459 11.8074 3.460375 29.773641 19.781486
2005-05-13 12:15:55 51°14.66 2°51.354 11.8196 3.462271 29.791736 19.848905
2005-05-13 12:16:54 51°14.62 2°51.264 11.8185 3.466169 29.82136 19.376973
2005-05-13 12:17:54 51°14.584 2°51.184 11.82 3.469329 29.855312 20.051161
2005-05-13 12:18:55 51°14.553 2°51.109 11.8171 3.471436 29.870996 19.747777
2005-05-13 12:19:54 51°14.523 2°51.041 11.8203 3.472595 29.881424 19.309554
2005-05-13 12:20:55 51°14.49 2°50.976 11.8253 3.473227 29.884927 19.039879
2005-05-13 12:21:55 51°14.458 2°50.912 11.8331 3.474175 29.894609 18.97246
2005-05-13 12:22:55 51°14.43 2°50.845 11.8256 3.474702 29.89584 19.039879
2005-05-13 12:23:54 51°14.405 2°50.781 11.8306 3.474491 29.891931 19.275845
2005-05-13 12:24:55 51°14.378 2°50.718 11.8486 3.474386 29.885866 18.770204
2005-05-13 12:25:55 51°14.351 2°50.655 11.8409 3.474175 29.871848 18.43311
2005-05-13 12:26:55 51°14.324 2°50.593 11.8535 3.474912 29.875722 18.871332
2005-05-13 12:27:55 51°14.296 2°50.532 11.8555 3.476282 29.885623 18.331982
2005-05-13 12:28:54 51°14.268 2°50.469 11.8663 3.47723 29.885187 18.331982
2005-05-13 12:29:55 51°14.241 2°50.403 11.8688 3.47744 29.883406 18.500529
2005-05-13 12:30:55 51°14.215 2°50.337 11.8735 3.478178 29.887278 18.702785
2005-05-13 12:31:55 51°14.19 2°50.271 11.8778 3.478704 29.889773 18.230853
2005-05-13 12:32:55 51°14.166 2°50.203 11.8791 3.479126 29.89 18.534238
2005-05-13 12:33:55 51°14.142 2°50.129 11.8791 3.480495 29.901789 18.803913
2005-05-13 12:34:54 51°14.12 2°50.051 11.8403 3.482286 29.925179 18.905042
2005-05-13 12:35:55 51°14.1 2°49.97 11.7863 3.484394 29.992801 20.69164
2005-05-13 12:36:55 51°14.082 2°49.89 11.7828 3.484289 30.014033 20.455674
2005-05-13 12:37:55 51°14.062 2°49.809 11.782 3.48471 30.020604 20.421965
2005-05-13 12:38:55 51°14.038 2°49.73 11.7904 3.482182 29.994535 21.534375
2005-05-13 12:39:55 51°14.014 2°49.65 11.8065 3.482603 29.990937 20.893896
2005-05-13 12:40:55 51°13.99 2°49.571 11.8133 3.482392 29.979399 20.287127
2005-05-13 12:41:54 51°13.968 2°49.491 11.8228 3.48039 29.952041 20.624221
2005-05-13 12:42:55 51°13.949 2°49.409 11.8124 3.47881 29.935054 20.590512
2005-05-13 12:43:55 51°13.937 2°49.322 11.7836 3.475439 29.912374 22.174853
2005-05-13 12:44:55 51°13.926 2°49.222 11.795 3.472069 29.90045 22.95017
2005-05-13 12:45:55 51°13.921 2°49.136 11.7737 3.473438 29.907195 22.174853
2005-05-13 12:46:54 51°13.913 2°49.07 11.7718 3.472385 29.911074 23.186136
2005-05-13 12:47:55 51°13.901 2°49.012 11.7789 3.472806 29.913198 22.613076
2005-05-13 12:48:55 51°13.888 2°48.959 11.7888 3.47407 29.920204 21.938888
2005-05-13 12:49:55 51°13.907 2°48.905 11.7885 3.474702 29.926877 21.298409
2005-05-13 12:50:55 51°13.922 2°48.912 11.7953 3.47544 29.933288 21.433247
2005-05-13 12:51:55 51°13.915 2°48.923 11.7928 3.477757 29.950355 21.028734
2005-05-13 12:52:55 51°13.902 2°48.917 11.7888 3.478284 29.964909 20.725349
2005-05-13 12:53:55 51°13.893 2°48.902 11.7842 3.473543 29.923415 20.759059
2005-05-13 12:54:55 51°13.887 2°48.867 11.7954 3.473754 29.923525 20.320836
2005-05-13 12:55:55 51°13.882 2°48.816 11.7937 3.480602 29.985153 19.950033
2005-05-13 12:56:55 51°13.875 2°48.761 11.791 3.480602 29.985153 20.759059
2005-05-13 12:57:55 51°13.902 2°48.691 11.7885 3.480602 29.984517 20.826477
2005-05-13 12:58:54 51°13.947 2°48.688 11.7716 3.481866 30.002957 19.983742
2005-05-13 12:59:55 51°13.995 2°48.745 11.7545 3.486712 30.065856 18.466819
2005-05-13 13:00:55 51°14.013 2°48.829 11.7394 3.489978 30.11243 17.489247
2005-05-13 13:01:55 51°14.025 2°48.92 11.7356 3.49061 30.123595 17.657794
2005-05-13 13:02:55 51°14.043 2°49.004 11.7422 3.492401 30.142663 17.017315
2005-05-13 13:03:55 51°14.047 2°49.103 11.7293 3.493244 30.151374 17.253281
2005-05-13 13:04:55 51°14.058 2°49.183 11.7228 3.494087 30.16585 17.624084
2005-05-13 13:05:55 51°14.063 2°49.249 11.7329 3.494614 30.172177 17.86005
2005-05-13 13:06:54 51°14.064 2°49.308 11.7358 3.496405 30.188693 16.444255
2005-05-13 13:07:54 51°14.063 2°49.376 11.7409 3.496826 30.184398 16.17458
2005-05-13 13:08:55 51°14.063 2°49.455 11.7432 3.495667 30.173299 16.545383
2005-05-13 13:09:55 51°14.073 2°49.528 11.7785 3.493033 30.137201 16.983606
2005-05-13 13:10:55 51°14.089 2°49.595 11.7857 3.486396 30.053271 17.388118
2005-05-13 13:11:55 51°14.099 2°49.668 11.7819 3.483657 30.025805 17.725212
2005-05-13 13:12:55 51°14.101 2°49.749 11.7859 3.480496 29.999403 18.163435
2005-05-13 13:13:54 51°14.106 2°49.827 11.7904 3.478389 29.972268 18.534238
2005-05-13 13:14:55 51°14.122 2°49.902 11.7921 3.476282 29.947051 19.242136
2005-05-13 13:15:54 51°14.137 2°49.969 11.792 3.473543 29.922781 19.950033
2005-05-13 13:16:54 51°14.136 2°50.049 11.7938 3.471753 29.906936 20.219708
2005-05-13 13:17:55 51°14.117 2°50.138 11.7935 3.468065 29.869808 20.017452
2005-05-13 13:18:54 51°14.093 2°50.193 11.7997 3.469014 29.877599 20.388255
2005-05-13 13:19:54 51°14.07 2°50.216 11.7981 3.468065 29.864112 20.759059
2005-05-13 13:20:54 51°14.05 2°50.232 11.8056 3.466801 29.852038 20.893896
2005-05-13 13:21:55 51°14.05 2°50.279 11.8097 3.466275 29.846375 20.523093
2005-05-13 13:22:55 51°14.099 2°50.447 11.8102 3.466801 29.847611 20.927606
2005-05-13 13:23:55 51°14.171 2°50.693 11.8092 3.465537 29.82543 20.725349
2005-05-13 13:24:54 51°14.245 2°50.949 11.8123 3.464484 29.823585 21.938888
2005-05-13 13:25:54 51°14.318 2°51.225 11.8301 3.467749 29.846548 21.028734
2005-05-13 13:26:55 51°14.397 2°51.521 11.8351 3.467328 29.824842 20.084871
2005-05-13 13:27:55 51°14.472 2°51.813 11.8421 3.466063 29.814674 19.57923
2005-05-13 13:28:55 51°14.537 2°52.113 11.8268 3.465115 29.803737 20.017452
2005-05-13 13:29:54 51°14.579 2°52.426 11.8214 3.464589 29.806281 20.792768
2005-05-13 13:30:55 51°14.598 2°52.754 11.8012 3.462377 29.797789 22.410819
2005-05-13 13:31:55 51°14.581 2°53.086 11.814 3.460164 29.776674 21.702922
2005-05-13 13:32:55 51°14.532 2°53.41 11.8199 3.456583 29.739344 20.489383
2005-05-13 13:33:55 51°14.485 2°53.733 11.8367 3.46501 29.810302 20.556802
2005-05-13 13:34:55 51°14.454 2°54.063 11.8529 3.458689 29.738038 21.871469
2005-05-13 13:35:55 51°14.427 2°54.398 11.8823 3.452158 29.657572 22.208563
2005-05-13 13:36:55 51°14.407 2°54.737 11.9253 3.447628 29.596276 23.017589
2005-05-13 13:37:55 51°14.349 2°55.06 12.0268 3.412865 29.21872 24.332255
2005-05-13 13:38:55 51°14.224 2°55.304 12.1235 3.286684 27.961622 25.714341
2005-05-13 13:39:54 51°14.087 2°55.444 12.2988 3.115464 26.266299 25.377247
2005-05-13 13:40:55 51°13.962 2°55.536 12.5081 2.98124 24.928506 25.309828
2005-05-13 13:41:54 51°13.855 2°55.609 12.7687 2.760659 22.740753 24.433383
2005-05-13 13:42:54 51°13.776 2°55.688 12.8907 2.68796 22.019563 24.63564
2005-05-13 13:43:55 51°13.714 2°55.793 12.9275 2.392548 19.263318 25.680631
2005-05-13 13:44:55 51°13.653 2°55.917 12.9157 2.439754 19.684209 25.040153
2005-05-13 13:45:55 51°13.617 2°56.025 12.9944 2.389289 19.229471 24.669349
2005-05-13 13:46:54 51°13.598 2°56.087 12.8881 2.307821 18.474254 24.500802
2005-05-13 13:47:54 51°13.593 2°56.1 12.6666 2.471929 20.001651 24.332255
2005-05-13 13:48:55 51°13.594 2°56.105 12.6074 2.764025 22.724358 24.433383
2005-05-13 13:49:55 51°13.595 2°56.102 12.5947 2.766446 22.787079 24.568221